sensor_id;sensor_type;location;lat;lon;timestamp;P1;durP1;ratioP1;P2;durP2;ratioP2
76236;SDS011;65038;53.200;6.530;2023-03-01T00:00:21;14.52;;;5.70;;
76236;SDS011;65038;53.200;6.530;2023-03-01T00:02:47;13.10;;;6.85;;
76236;SDS011;65038;53.200;6.530;2023-03-01T00:05:13;13.70;;;6.28;;
76236;SDS011;65038;53.200;6.530;2023-03-01T00:07:39;13.10;;;6.53;;
76236;SDS011;65038;53.200;6.530;2023-03-01T00:10:06;24.25;;;12.88;;
76236;SDS011;65038;53.200;6.530;2023-03-01T00:12:32;12.52;;;5.30;;
76236;SDS011;65038;53.200;6.530;2023-03-01T00:14:58;14.57;;;6.50;;
76236;SDS011;65038;53.200;6.530;2023-03-01T00:17:24;10.82;;;4.68;;
76236;SDS011;65038;53.200;6.530;2023-03-01T00:19:50;11.95;;;4.50;;
76236;SDS011;65038;53.200;6.530;2023-03-01T00:22:16;13.70;;;5.18;;
76236;SDS011;65038;53.200;6.530;2023-03-01T00:24:42;14.98;;;5.32;;
76236;SDS011;65038;53.200;6.530;2023-03-01T00:27:07;10.00;;;4.68;;
76236;SDS011;65038;53.200;6.530;2023-03-01T00:29:33;14.90;;;6.20;;
76236;SDS011;65038;53.200;6.530;2023-03-01T00:31:59;12.93;;;4.45;;
76236;SDS011;65038;53.200;6.530;2023-03-01T00:34:25;13.73;;;4.68;;
76236;SDS011;65038;53.200;6.530;2023-03-01T00:36:51;13.50;;;5.57;;
76236;SDS011;65038;53.200;6.530;2023-03-01T00:39:17;13.02;;;6.32;;
76236;SDS011;65038;53.200;6.530;2023-03-01T00:41:43;13.18;;;6.28;;
76236;SDS011;65038;53.200;6.530;2023-03-01T00:44:10;11.50;;;5.53;;
76236;SDS011;65038;53.200;6.530;2023-03-01T00:46:36;11.35;;;5.45;;
76236;SDS011;65038;53.200;6.530;2023-03-01T00:49:02;10.35;;;5.25;;
76236;SDS011;65038;53.200;6.530;2023-03-01T00:51:29;10.73;;;4.30;;
76236;SDS011;65038;53.200;6.530;2023-03-01T00:53:56;15.13;;;9.85;;
76236;SDS011;65038;53.200;6.530;2023-03-01T00:56:22;8.95;;;3.42;;
76236;SDS011;65038;53.200;6.530;2023-03-01T00:58:49;12.45;;;4.25;;
76236;SDS011;65038;53.200;6.530;2023-03-01T01:01:16;7.43;;;3.35;;
76236;SDS011;65038;53.200;6.530;2023-03-01T01:03:51;11.95;;;5.30;;
76236;SDS011;65038;53.200;6.530;2023-03-01T01:06:22;6.80;;;3.65;;
76236;SDS011;65038;53.200;6.530;2023-03-01T01:08:49;10.90;;;4.78;;
76236;SDS011;65038;53.200;6.530;2023-03-01T01:11:15;9.60;;;4.07;;
76236;SDS011;65038;53.200;6.530;2023-03-01T01:13:41;8.52;;;3.20;;
76236;SDS011;65038;53.200;6.530;2023-03-01T01:16:07;6.72;;;3.72;;
76236;SDS011;65038;53.200;6.530;2023-03-01T01:18:34;6.43;;;2.75;;
76236;SDS011;65038;53.200;6.530;2023-03-01T01:21:07;8.05;;;3.10;;
76236;SDS011;65038;53.200;6.530;2023-03-01T01:23:33;7.18;;;3.72;;
76236;SDS011;65038;53.200;6.530;2023-03-01T01:26:03;6.53;;;3.53;;
76236;SDS011;65038;53.200;6.530;2023-03-01T01:28:29;5.72;;;2.60;;
76236;SDS011;65038;53.200;6.530;2023-03-01T01:30:55;7.40;;;3.22;;
76236;SDS011;65038;53.200;6.530;2023-03-01T01:33:21;6.70;;;3.25;;
76236;SDS011;65038;53.200;6.530;2023-03-01T01:35:47;6.90;;;3.55;;
76236;SDS011;65038;53.200;6.530;2023-03-01T01:38:13;7.10;;;3.30;;
76236;SDS011;65038;53.200;6.530;2023-03-01T01:40:43;7.60;;;3.42;;
76236;SDS011;65038;53.200;6.530;2023-03-01T01:43:23;8.57;;;4.07;;
76236;SDS011;65038;53.200;6.530;2023-03-01T01:45:49;8.38;;;3.67;;
76236;SDS011;65038;53.200;6.530;2023-03-01T01:48:17;8.18;;;3.05;;
76236;SDS011;65038;53.200;6.530;2023-03-01T01:50:44;6.35;;;2.80;;
76236;SDS011;65038;53.200;6.530;2023-03-01T01:53:14;9.60;;;6.90;;
76236;SDS011;65038;53.200;6.530;2023-03-01T01:55:42;7.13;;;3.50;;
76236;SDS011;65038;53.200;6.530;2023-03-01T01:58:09;6.43;;;3.05;;
76236;SDS011;65038;53.200;6.530;2023-03-01T02:00:36;6.95;;;3.60;;
76236;SDS011;65038;53.200;6.530;2023-03-01T02:03:05;6.93;;;3.50;;
76236;SDS011;65038;53.200;6.530;2023-03-01T02:08:16;7.90;;;3.67;;
76236;SDS011;65038;53.200;6.530;2023-03-01T02:10:44;8.25;;;3.20;;
76236;SDS011;65038;53.200;6.530;2023-03-01T02:13:11;5.90;;;3.00;;
76236;SDS011;65038;53.200;6.530;2023-03-01T02:15:38;6.90;;;3.10;;
76236;SDS011;65038;53.200;6.530;2023-03-01T02:18:05;6.13;;;3.10;;
76236;SDS011;65038;53.200;6.530;2023-03-01T02:20:33;6.40;;;3.22;;
76236;SDS011;65038;53.200;6.530;2023-03-01T02:23:00;7.80;;;3.50;;
76236;SDS011;65038;53.200;6.530;2023-03-01T02:25:28;11.13;;;3.72;;
76236;SDS011;65038;53.200;6.530;2023-03-01T02:30:30;8.00;;;3.28;;
76236;SDS011;65038;53.200;6.530;2023-03-01T02:32:56;7.40;;;3.25;;
76236;SDS011;65038;53.200;6.530;2023-03-01T02:35:27;6.25;;;3.22;;
76236;SDS011;65038;53.200;6.530;2023-03-01T02:37:54;6.65;;;3.35;;
76236;SDS011;65038;53.200;6.530;2023-03-01T02:40:22;8.27;;;3.72;;
76236;SDS011;65038;53.200;6.530;2023-03-01T02:42:52;5.60;;;3.17;;
76236;SDS011;65038;53.200;6.530;2023-03-01T02:45:19;8.75;;;3.63;;
76236;SDS011;65038;53.200;6.530;2023-03-01T02:47:45;9.50;;;3.33;;
76236;SDS011;65038;53.200;6.530;2023-03-01T02:55:21;8.15;;;3.30;;
76236;SDS011;65038;53.200;6.530;2023-03-01T02:57:47;7.20;;;3.67;;
76236;SDS011;65038;53.200;6.530;2023-03-01T03:00:18;6.57;;;3.80;;
76236;SDS011;65038;53.200;6.530;2023-03-01T03:02:45;9.00;;;3.58;;
76236;SDS011;65038;53.200;6.530;2023-03-01T03:05:12;6.00;;;2.97;;
76236;SDS011;65038;53.200;6.530;2023-03-01T03:07:40;7.18;;;3.42;;
76236;SDS011;65038;53.200;6.530;2023-03-01T03:10:07;7.47;;;2.83;;
76236;SDS011;65038;53.200;6.530;2023-03-01T03:12:33;7.72;;;2.78;;
76236;SDS011;65038;53.200;6.530;2023-03-01T03:14:59;7.28;;;2.70;;
76236;SDS011;65038;53.200;6.530;2023-03-01T03:17:25;7.85;;;3.60;;
76236;SDS011;65038;53.200;6.530;2023-03-01T03:19:51;6.95;;;3.22;;
76236;SDS011;65038;53.200;6.530;2023-03-01T03:22:17;5.75;;;3.35;;
76236;SDS011;65038;53.200;6.530;2023-03-01T03:24:43;6.70;;;2.83;;
76236;SDS011;65038;53.200;6.530;2023-03-01T03:27:09;6.82;;;2.97;;
76236;SDS011;65038;53.200;6.530;2023-03-01T03:29:35;5.60;;;2.90;;
76236;SDS011;65038;53.200;6.530;2023-03-01T03:32:01;7.10;;;3.10;;
76236;SDS011;65038;53.200;6.530;2023-03-01T03:34:28;6.38;;;2.72;;
76236;SDS011;65038;53.200;6.530;2023-03-01T03:36:55;6.30;;;3.25;;
76236;SDS011;65038;53.200;6.530;2023-03-01T03:39:25;7.28;;;2.65;;
76236;SDS011;65038;53.200;6.530;2023-03-01T03:41:51;6.38;;;3.45;;
76236;SDS011;65038;53.200;6.530;2023-03-01T03:44:18;6.50;;;3.75;;
76236;SDS011;65038;53.200;6.530;2023-03-01T03:46:44;8.32;;;2.78;;
76236;SDS011;65038;53.200;6.530;2023-03-01T03:49:10;5.28;;;2.42;;
76236;SDS011;65038;53.200;6.530;2023-03-01T03:51:36;6.38;;;2.95;;
76236;SDS011;65038;53.200;6.530;2023-03-01T03:54:02;8.85;;;3.47;;
76236;SDS011;65038;53.200;6.530;2023-03-01T03:56:28;6.63;;;2.95;;
76236;SDS011;65038;53.200;6.530;2023-03-01T03:58:54;8.52;;;3.28;;
76236;SDS011;65038;53.200;6.530;2023-03-01T04:01:20;7.15;;;2.72;;
76236;SDS011;65038;53.200;6.530;2023-03-01T04:03:46;6.18;;;3.25;;
76236;SDS011;65038;53.200;6.530;2023-03-01T04:06:13;6.82;;;3.58;;
76236;SDS011;65038;53.200;6.530;2023-03-01T04:08:39;4.95;;;2.92;;
76236;SDS011;65038;53.200;6.530;2023-03-01T04:11:06;6.50;;;2.63;;
76236;SDS011;65038;53.200;6.530;2023-03-01T04:13:52;6.00;;;2.73;;
76236;SDS011;65038;53.200;6.530;2023-03-01T04:16:18;5.78;;;2.63;;
76236;SDS011;65038;53.200;6.530;2023-03-01T04:18:44;7.60;;;3.13;;
76236;SDS011;65038;53.200;6.530;2023-03-01T04:21:11;6.20;;;2.75;;
76236;SDS011;65038;53.200;6.530;2023-03-01T04:23:37;5.97;;;3.05;;
76236;SDS011;65038;53.200;6.530;2023-03-01T04:26:03;5.55;;;3.33;;
76236;SDS011;65038;53.200;6.530;2023-03-01T04:28:47;4.82;;;2.45;;
76236;SDS011;65038;53.200;6.530;2023-03-01T04:31:16;7.65;;;2.67;;
76236;SDS011;65038;53.200;6.530;2023-03-01T04:36:08;6.72;;;3.20;;
76236;SDS011;65038;53.200;6.530;2023-03-01T04:38:35;5.35;;;2.75;;
76236;SDS011;65038;53.200;6.530;2023-03-01T04:41:05;4.68;;;2.45;;
76236;SDS011;65038;53.200;6.530;2023-03-01T04:43:32;11.75;;;3.90;;
76236;SDS011;65038;53.200;6.530;2023-03-01T04:46:19;5.68;;;2.55;;
76236;SDS011;65038;53.200;6.530;2023-03-01T04:48:46;5.05;;;2.58;;
76236;SDS011;65038;53.200;6.530;2023-03-01T04:51:12;6.55;;;2.90;;
76236;SDS011;65038;53.200;6.530;2023-03-01T04:53:38;6.65;;;2.92;;
76236;SDS011;65038;53.200;6.530;2023-03-01T04:56:04;5.15;;;2.40;;
76236;SDS011;65038;53.200;6.530;2023-03-01T04:58:31;5.65;;;2.60;;
76236;SDS011;65038;53.200;6.530;2023-03-01T05:00:57;7.93;;;3.35;;
76236;SDS011;65038;53.200;6.530;2023-03-01T05:03:23;5.18;;;2.22;;
76236;SDS011;65038;53.200;6.530;2023-03-01T05:05:50;5.47;;;2.22;;
76236;SDS011;65038;53.200;6.530;2023-03-01T05:08:16;5.00;;;2.45;;
76236;SDS011;65038;53.200;6.530;2023-03-01T05:10:47;6.40;;;3.05;;
76236;SDS011;65038;53.200;6.530;2023-03-01T05:13:14;8.05;;;3.03;;
76236;SDS011;65038;53.200;6.530;2023-03-01T05:15:45;7.32;;;3.08;;
76236;SDS011;65038;53.200;6.530;2023-03-01T05:18:12;5.25;;;2.50;;
76236;SDS011;65038;53.200;6.530;2023-03-01T05:20:38;5.70;;;2.38;;
76236;SDS011;65038;53.200;6.530;2023-03-01T05:23:04;7.00;;;3.33;;
76236;SDS011;65038;53.200;6.530;2023-03-01T05:25:30;6.47;;;2.83;;
76236;SDS011;65038;53.200;6.530;2023-03-01T05:27:58;5.65;;;2.55;;
76236;SDS011;65038;53.200;6.530;2023-03-01T05:30:24;5.25;;;2.13;;
76236;SDS011;65038;53.200;6.530;2023-03-01T05:32:50;5.93;;;3.17;;
76236;SDS011;65038;53.200;6.530;2023-03-01T05:35:23;6.47;;;2.25;;
76236;SDS011;65038;53.200;6.530;2023-03-01T05:37:49;8.93;;;2.30;;
76236;SDS011;65038;53.200;6.530;2023-03-01T05:40:16;4.78;;;2.33;;
76236;SDS011;65038;53.200;6.530;2023-03-01T05:42:46;5.93;;;2.78;;
76236;SDS011;65038;53.200;6.530;2023-03-01T05:45:13;7.22;;;2.45;;
76236;SDS011;65038;53.200;6.530;2023-03-01T05:47:40;8.38;;;2.90;;
76236;SDS011;65038;53.200;6.530;2023-03-01T05:50:09;8.23;;;3.08;;
76236;SDS011;65038;53.200;6.530;2023-03-01T05:52:35;4.65;;;2.55;;
76236;SDS011;65038;53.200;6.530;2023-03-01T05:55:01;5.80;;;2.55;;
76236;SDS011;65038;53.200;6.530;2023-03-01T05:57:28;4.20;;;2.40;;
76236;SDS011;65038;53.200;6.530;2023-03-01T05:59:54;6.75;;;2.65;;
76236;SDS011;65038;53.200;6.530;2023-03-01T06:02:20;4.80;;;2.53;;
76236;SDS011;65038;53.200;6.530;2023-03-01T06:04:46;6.15;;;2.70;;
76236;SDS011;65038;53.200;6.530;2023-03-01T06:07:12;6.97;;;3.50;;
76236;SDS011;65038;53.200;6.530;2023-03-01T06:09:38;7.43;;;2.90;;
76236;SDS011;65038;53.200;6.530;2023-03-01T06:12:04;4.47;;;2.50;;
76236;SDS011;65038;53.200;6.530;2023-03-01T06:14:30;6.38;;;2.40;;
76236;SDS011;65038;53.200;6.530;2023-03-01T06:16:56;5.95;;;2.33;;
76236;SDS011;65038;53.200;6.530;2023-03-01T06:19:22;6.82;;;3.25;;
76236;SDS011;65038;53.200;6.530;2023-03-01T06:21:48;7.75;;;2.67;;
76236;SDS011;65038;53.200;6.530;2023-03-01T06:24:14;6.05;;;2.63;;
76236;SDS011;65038;53.200;6.530;2023-03-01T06:26:40;8.65;;;2.55;;
76236;SDS011;65038;53.200;6.530;2023-03-01T06:29:06;5.78;;;2.83;;
76236;SDS011;65038;53.200;6.530;2023-03-01T06:31:33;7.07;;;2.20;;
76236;SDS011;65038;53.200;6.530;2023-03-01T06:33:59;6.72;;;2.95;;
76236;SDS011;65038;53.200;6.530;2023-03-01T06:36:25;5.82;;;2.28;;
76236;SDS011;65038;53.200;6.530;2023-03-01T06:38:51;6.40;;;2.58;;
76236;SDS011;65038;53.200;6.530;2023-03-01T06:41:17;6.53;;;2.72;;
76236;SDS011;65038;53.200;6.530;2023-03-01T06:43:43;5.90;;;2.97;;
76236;SDS011;65038;53.200;6.530;2023-03-01T06:46:09;7.15;;;3.03;;
76236;SDS011;65038;53.200;6.530;2023-03-01T06:48:35;5.03;;;2.65;;
76236;SDS011;65038;53.200;6.530;2023-03-01T06:51:02;6.43;;;2.42;;
76236;SDS011;65038;53.200;6.530;2023-03-01T06:53:28;6.72;;;2.42;;
76236;SDS011;65038;53.200;6.530;2023-03-01T06:55:57;4.18;;;1.83;;
76236;SDS011;65038;53.200;6.530;2023-03-01T06:58:25;6.90;;;3.45;;
76236;SDS011;65038;53.200;6.530;2023-03-01T07:00:51;7.95;;;3.10;;
76236;SDS011;65038;53.200;6.530;2023-03-01T07:03:17;7.60;;;2.75;;
76236;SDS011;65038;53.200;6.530;2023-03-01T07:05:43;7.75;;;3.47;;
76236;SDS011;65038;53.200;6.530;2023-03-01T07:08:09;8.27;;;3.00;;
76236;SDS011;65038;53.200;6.530;2023-03-01T07:10:35;9.05;;;4.50;;
76236;SDS011;65038;53.200;6.530;2023-03-01T07:13:02;7.22;;;3.05;;
76236;SDS011;65038;53.200;6.530;2023-03-01T07:15:28;7.10;;;3.03;;
76236;SDS011;65038;53.200;6.530;2023-03-01T07:17:54;8.35;;;3.67;;
76236;SDS011;65038;53.200;6.530;2023-03-01T07:20:21;7.00;;;3.47;;
76236;SDS011;65038;53.200;6.530;2023-03-01T07:22:49;9.77;;;3.63;;
76236;SDS011;65038;53.200;6.530;2023-03-01T07:25:15;8.48;;;3.60;;
76236;SDS011;65038;53.200;6.530;2023-03-01T07:27:41;9.73;;;5.18;;
76236;SDS011;65038;53.200;6.530;2023-03-01T07:30:07;7.40;;;3.38;;
76236;SDS011;65038;53.200;6.530;2023-03-01T07:32:34;6.13;;;3.45;;
76236;SDS011;65038;53.200;6.530;2023-03-01T07:35:00;9.57;;;6.13;;
76236;SDS011;65038;53.200;6.530;2023-03-01T07:37:26;10.10;;;4.63;;
76236;SDS011;65038;53.200;6.530;2023-03-01T07:39:52;10.30;;;4.95;;
76236;SDS011;65038;53.200;6.530;2023-03-01T07:42:18;9.23;;;4.85;;
76236;SDS011;65038;53.200;6.530;2023-03-01T07:44:44;11.60;;;5.10;;
76236;SDS011;65038;53.200;6.530;2023-03-01T07:47:10;9.13;;;4.10;;
76236;SDS011;65038;53.200;6.530;2023-03-01T07:49:36;11.40;;;6.20;;
76236;SDS011;65038;53.200;6.530;2023-03-01T07:52:02;13.43;;;5.07;;
76236;SDS011;65038;53.200;6.530;2023-03-01T07:54:28;15.82;;;7.25;;
76236;SDS011;65038;53.200;6.530;2023-03-01T07:56:54;10.45;;;5.32;;
76236;SDS011;65038;53.200;6.530;2023-03-01T07:59:20;10.30;;;4.85;;
76236;SDS011;65038;53.200;6.530;2023-03-01T08:01:46;13.68;;;6.95;;
76236;SDS011;65038;53.200;6.530;2023-03-01T08:04:12;11.52;;;5.60;;
76236;SDS011;65038;53.200;6.530;2023-03-01T08:06:38;13.85;;;5.40;;
76236;SDS011;65038;53.200;6.530;2023-03-01T08:09:04;11.85;;;4.78;;
76236;SDS011;65038;53.200;6.530;2023-03-01T08:11:30;14.38;;;6.13;;
76236;SDS011;65038;53.200;6.530;2023-03-01T08:13:56;12.82;;;6.90;;
76236;SDS011;65038;53.200;6.530;2023-03-01T08:16:22;13.85;;;6.97;;
76236;SDS011;65038;53.200;6.530;2023-03-01T08:18:48;13.20;;;6.18;;
76236;SDS011;65038;53.200;6.530;2023-03-01T08:21:15;13.63;;;6.38;;
76236;SDS011;65038;53.200;6.530;2023-03-01T08:23:42;18.05;;;6.95;;
76236;SDS011;65038;53.200;6.530;2023-03-01T08:28:37;15.68;;;7.68;;
76236;SDS011;65038;53.200;6.530;2023-03-01T08:31:12;22.60;;;11.45;;
76236;SDS011;65038;53.200;6.530;2023-03-01T08:33:38;27.98;;;12.73;;
76236;SDS011;65038;53.200;6.530;2023-03-01T08:36:05;24.52;;;11.88;;
76236;SDS011;65038;53.200;6.530;2023-03-01T08:38:32;29.95;;;11.45;;
76236;SDS011;65038;53.200;6.530;2023-03-01T08:41:01;26.23;;;10.50;;
76236;SDS011;65038;53.200;6.530;2023-03-01T08:43:28;32.70;;;14.98;;
76236;SDS011;65038;53.200;6.530;2023-03-01T08:45:54;45.85;;;27.98;;
76236;SDS011;65038;53.200;6.530;2023-03-01T08:48:20;31.70;;;13.77;;
76236;SDS011;65038;53.200;6.530;2023-03-01T08:50:46;31.10;;;12.45;;
76236;SDS011;65038;53.200;6.530;2023-03-01T08:53:12;33.17;;;13.60;;
76236;SDS011;65038;53.200;6.530;2023-03-01T08:55:38;38.47;;;16.73;;
76236;SDS011;65038;53.200;6.530;2023-03-01T08:58:04;49.17;;;29.88;;
76236;SDS011;65038;53.200;6.530;2023-03-01T09:00:30;29.13;;;11.63;;
76236;SDS011;65038;53.200;6.530;2023-03-01T09:02:59;31.45;;;13.30;;
76236;SDS011;65038;53.200;6.530;2023-03-01T09:05:25;38.67;;;15.50;;
76236;SDS011;65038;53.200;6.530;2023-03-01T09:07:51;40.22;;;15.50;;
76236;SDS011;65038;53.200;6.530;2023-03-01T09:10:17;38.13;;;17.10;;
76236;SDS011;65038;53.200;6.530;2023-03-01T09:12:43;49.50;;;29.13;;
76236;SDS011;65038;53.200;6.530;2023-03-01T09:15:09;39.42;;;16.02;;
76236;SDS011;65038;53.200;6.530;2023-03-01T09:17:36;47.08;;;26.52;;
76236;SDS011;65038;53.200;6.530;2023-03-01T09:20:02;46.13;;;26.75;;
76236;SDS011;65038;53.200;6.530;2023-03-01T09:22:30;46.33;;;26.63;;
76236;SDS011;65038;53.200;6.530;2023-03-01T09:24:56;31.17;;;13.32;;
76236;SDS011;65038;53.200;6.530;2023-03-01T09:27:24;38.70;;;24.17;;
76236;SDS011;65038;53.200;6.530;2023-03-01T09:29:50;31.02;;;11.02;;
76236;SDS011;65038;53.200;6.530;2023-03-01T09:32:16;40.40;;;23.40;;
76236;SDS011;65038;53.200;6.530;2023-03-01T09:34:42;34.38;;;20.10;;
76236;SDS011;65038;53.200;6.530;2023-03-01T09:37:29;26.55;;;9.25;;
76236;SDS011;65038;53.200;6.530;2023-03-01T09:39:55;29.63;;;17.90;;
76236;SDS011;65038;53.200;6.530;2023-03-01T09:42:21;31.25;;;18.20;;
76236;SDS011;65038;53.200;6.530;2023-03-01T09:44:48;30.25;;;18.38;;
76236;SDS011;65038;53.200;6.530;2023-03-01T09:47:18;31.75;;;19.42;;
76236;SDS011;65038;53.200;6.530;2023-03-01T09:49:45;40.58;;;9.95;;
76236;SDS011;65038;53.200;6.530;2023-03-01T09:54:58;23.38;;;14.40;;
76236;SDS011;65038;53.200;6.530;2023-03-01T09:57:47;22.45;;;13.52;;
76236;SDS011;65038;53.200;6.530;2023-03-01T10:02:45;18.30;;;12.13;;
76236;SDS011;65038;53.200;6.530;2023-03-01T10:10:25;20.33;;;13.00;;
76236;SDS011;65038;53.200;6.530;2023-03-01T10:12:52;17.13;;;11.68;;
76236;SDS011;65038;53.200;6.530;2023-03-01T10:15:19;18.60;;;11.57;;
76236;SDS011;65038;53.200;6.530;2023-03-01T10:20:53;17.77;;;11.38;;
76236;SDS011;65038;53.200;6.530;2023-03-01T10:23:22;18.08;;;11.45;;
76236;SDS011;65038;53.200;6.530;2023-03-01T10:25:55;19.95;;;11.25;;
76236;SDS011;65038;53.200;6.530;2023-03-01T10:31:00;16.48;;;10.85;;
76236;SDS011;65038;53.200;6.530;2023-03-01T10:33:27;16.67;;;10.80;;
76236;SDS011;65038;53.200;6.530;2023-03-01T10:35:55;17.65;;;11.05;;
76236;SDS011;65038;53.200;6.530;2023-03-01T10:38:21;14.98;;;11.05;;
76236;SDS011;65038;53.200;6.530;2023-03-01T10:43:16;16.13;;;10.98;;
76236;SDS011;65038;53.200;6.530;2023-03-01T10:45:42;15.80;;;10.70;;
76236;SDS011;65038;53.200;6.530;2023-03-01T10:50:34;18.75;;;11.90;;
76236;SDS011;65038;53.200;6.530;2023-03-01T10:53:03;19.17;;;11.90;;
76236;SDS011;65038;53.200;6.530;2023-03-01T10:55:39;18.67;;;12.15;;
76236;SDS011;65038;53.200;6.530;2023-03-01T10:58:06;16.88;;;11.45;;
76236;SDS011;65038;53.200;6.530;2023-03-01T11:00:33;18.15;;;12.88;;
76236;SDS011;65038;53.200;6.530;2023-03-01T11:05:25;16.15;;;11.52;;
76236;SDS011;65038;53.200;6.530;2023-03-01T11:07:56;15.90;;;12.32;;
76236;SDS011;65038;53.200;6.530;2023-03-01T11:10:23;17.90;;;12.20;;
76236;SDS011;65038;53.200;6.530;2023-03-01T11:12:50;16.88;;;11.85;;
76236;SDS011;65038;53.200;6.530;2023-03-01T11:15:21;16.38;;;11.65;;
76236;SDS011;65038;53.200;6.530;2023-03-01T11:17:48;16.83;;;11.45;;
76236;SDS011;65038;53.200;6.530;2023-03-01T11:22:44;15.75;;;10.13;;
76236;SDS011;65038;53.200;6.530;2023-03-01T11:25:12;15.27;;;10.80;;
76236;SDS011;65038;53.200;6.530;2023-03-01T11:27:40;16.35;;;11.43;;
76236;SDS011;65038;53.200;6.530;2023-03-01T11:32:35;17.10;;;11.80;;
76236;SDS011;65038;53.200;6.530;2023-03-01T11:35:18;15.70;;;10.93;;
76236;SDS011;65038;53.200;6.530;2023-03-01T11:40:33;16.15;;;10.43;;
76236;SDS011;65038;53.200;6.530;2023-03-01T11:46:02;15.05;;;9.98;;
76236;SDS011;65038;53.200;6.530;2023-03-01T11:50:56;13.02;;;9.10;;
76236;SDS011;65038;53.200;6.530;2023-03-01T11:58:37;13.70;;;8.53;;
76236;SDS011;65038;53.200;6.530;2023-03-01T12:09:12;15.73;;;10.48;;
76236;SDS011;65038;53.200;6.530;2023-03-01T12:11:51;16.50;;;11.00;;
76236;SDS011;65038;53.200;6.530;2023-03-01T12:19:22;15.02;;;10.00;;
76236;SDS011;65038;53.200;6.530;2023-03-01T12:30:16;15.90;;;10.95;;
76236;SDS011;65038;53.200;6.530;2023-03-01T12:33:10;14.98;;;10.60;;
76236;SDS011;65038;53.200;6.530;2023-03-01T12:38:14;13.85;;;9.68;;
76236;SDS011;65038;53.200;6.530;2023-03-01T12:48:58;13.73;;;9.60;;
76236;SDS011;65038;53.200;6.530;2023-03-01T12:51:26;15.07;;;9.70;;
76236;SDS011;65038;53.200;6.530;2023-03-01T12:53:54;15.65;;;9.85;;
76236;SDS011;65038;53.200;6.530;2023-03-01T12:56:22;17.70;;;9.20;;
76236;SDS011;65038;53.200;6.530;2023-03-01T13:06:45;12.88;;;8.60;;
76236;SDS011;65038;53.200;6.530;2023-03-01T13:11:41;15.40;;;9.48;;
76236;SDS011;65038;53.200;6.530;2023-03-01T13:16:47;13.15;;;9.30;;
76236;SDS011;65038;53.200;6.530;2023-03-01T13:21:43;14.20;;;8.80;;
76236;SDS011;65038;53.200;6.530;2023-03-01T13:24:23;13.32;;;8.85;;
76236;SDS011;65038;53.200;6.530;2023-03-01T13:29:47;13.27;;;9.00;;
76236;SDS011;65038;53.200;6.530;2023-03-01T13:34:46;12.70;;;8.70;;
76236;SDS011;65038;53.200;6.530;2023-03-01T13:37:20;13.50;;;8.43;;
76236;SDS011;65038;53.200;6.530;2023-03-01T13:39:46;13.00;;;8.82;;
76236;SDS011;65038;53.200;6.530;2023-03-01T13:44:57;13.32;;;8.82;;
76236;SDS011;65038;53.200;6.530;2023-03-01T13:47:23;14.30;;;8.65;;
76236;SDS011;65038;53.200;6.530;2023-03-01T13:49:56;14.40;;;9.48;;
76236;SDS011;65038;53.200;6.530;2023-03-01T13:54:55;14.55;;;9.07;;
76236;SDS011;65038;53.200;6.530;2023-03-01T13:57:24;14.40;;;9.45;;
76236;SDS011;65038;53.200;6.530;2023-03-01T13:59:51;13.65;;;9.10;;
76236;SDS011;65038;53.200;6.530;2023-03-01T14:02:17;11.50;;;7.97;;
76236;SDS011;65038;53.200;6.530;2023-03-01T14:04:44;14.20;;;8.82;;
76236;SDS011;65038;53.200;6.530;2023-03-01T14:07:22;12.57;;;8.68;;
76236;SDS011;65038;53.200;6.530;2023-03-01T14:10:04;12.32;;;8.02;;
76236;SDS011;65038;53.200;6.530;2023-03-01T14:15:22;12.77;;;8.55;;
76236;SDS011;65038;53.200;6.530;2023-03-01T14:20:33;12.98;;;8.88;;
76236;SDS011;65038;53.200;6.530;2023-03-01T14:23:08;13.90;;;8.50;;
76236;SDS011;65038;53.200;6.530;2023-03-01T14:25:35;12.13;;;8.57;;
76236;SDS011;65038;53.200;6.530;2023-03-01T14:30:37;12.43;;;8.65;;
76236;SDS011;65038;53.200;6.530;2023-03-01T14:33:05;12.80;;;9.10;;
76236;SDS011;65038;53.200;6.530;2023-03-01T14:35:35;14.30;;;9.40;;
76236;SDS011;65038;53.200;6.530;2023-03-01T14:38:02;14.63;;;9.15;;
76236;SDS011;65038;53.200;6.530;2023-03-01T14:40:29;14.95;;;8.93;;
76236;SDS011;65038;53.200;6.530;2023-03-01T14:42:56;14.98;;;9.50;;
76236;SDS011;65038;53.200;6.530;2023-03-01T14:45:25;14.77;;;10.00;;
76236;SDS011;65038;53.200;6.530;2023-03-01T14:47:51;13.75;;;10.00;;
76236;SDS011;65038;53.200;6.530;2023-03-01T14:50:23;14.70;;;9.38;;
76236;SDS011;65038;53.200;6.530;2023-03-01T14:52:50;17.05;;;10.07;;
76236;SDS011;65038;53.200;6.530;2023-03-01T14:55:18;14.30;;;9.73;;
76236;SDS011;65038;53.200;6.530;2023-03-01T14:57:49;14.90;;;10.07;;
76236;SDS011;65038;53.200;6.530;2023-03-01T15:00:17;15.20;;;9.80;;
76236;SDS011;65038;53.200;6.530;2023-03-01T15:02:44;14.30;;;9.70;;
76236;SDS011;65038;53.200;6.530;2023-03-01T15:05:13;14.80;;;9.60;;
76236;SDS011;65038;53.200;6.530;2023-03-01T15:07:40;14.65;;;9.90;;
76236;SDS011;65038;53.200;6.530;2023-03-01T15:10:13;15.52;;;10.15;;
76236;SDS011;65038;53.200;6.530;2023-03-01T15:12:41;12.60;;;9.43;;
76236;SDS011;65038;53.200;6.530;2023-03-01T15:17:55;17.10;;;10.07;;
76236;SDS011;65038;53.200;6.530;2023-03-01T15:20:22;15.15;;;10.52;;
76236;SDS011;65038;53.200;6.530;2023-03-01T15:22:50;13.95;;;9.60;;
76236;SDS011;65038;53.200;6.530;2023-03-01T15:25:17;15.45;;;10.45;;
76236;SDS011;65038;53.200;6.530;2023-03-01T15:27:47;13.48;;;9.57;;
76236;SDS011;65038;53.200;6.530;2023-03-01T15:30:17;14.52;;;9.55;;
76236;SDS011;65038;53.200;6.530;2023-03-01T15:32:44;15.82;;;9.57;;
76236;SDS011;65038;53.200;6.530;2023-03-01T15:37:55;14.88;;;9.15;;
76236;SDS011;65038;53.200;6.530;2023-03-01T15:40:28;15.60;;;9.80;;
76236;SDS011;65038;53.200;6.530;2023-03-01T15:43:01;15.55;;;9.57;;
76236;SDS011;65038;53.200;6.530;2023-03-01T15:45:28;14.85;;;10.00;;
76236;SDS011;65038;53.200;6.530;2023-03-01T15:52:55;14.82;;;9.77;;
76236;SDS011;65038;53.200;6.530;2023-03-01T15:55:23;14.75;;;10.20;;
76236;SDS011;65038;53.200;6.530;2023-03-01T15:57:49;16.05;;;10.45;;
76236;SDS011;65038;53.200;6.530;2023-03-01T16:00:16;15.63;;;9.98;;
76236;SDS011;65038;53.200;6.530;2023-03-01T16:02:43;14.93;;;10.13;;
76236;SDS011;65038;53.200;6.530;2023-03-01T16:05:20;16.65;;;10.88;;
76236;SDS011;65038;53.200;6.530;2023-03-01T16:07:48;16.98;;;11.13;;
76236;SDS011;65038;53.200;6.530;2023-03-01T16:10:14;15.73;;;10.68;;
76236;SDS011;65038;53.200;6.530;2023-03-01T16:12:40;17.92;;;11.38;;
76236;SDS011;65038;53.200;6.530;2023-03-01T16:15:13;15.95;;;10.95;;
76236;SDS011;65038;53.200;6.530;2023-03-01T16:17:40;15.40;;;10.65;;
76236;SDS011;65038;53.200;6.530;2023-03-01T16:20:07;15.52;;;10.18;;
76236;SDS011;65038;53.200;6.530;2023-03-01T16:22:33;16.48;;;11.23;;
76236;SDS011;65038;53.200;6.530;2023-03-01T16:24:59;16.70;;;10.23;;
76236;SDS011;65038;53.200;6.530;2023-03-01T16:27:27;16.48;;;11.63;;
76236;SDS011;65038;53.200;6.530;2023-03-01T16:29:53;18.20;;;11.98;;
76236;SDS011;65038;53.200;6.530;2023-03-01T16:32:19;18.63;;;12.20;;
76236;SDS011;65038;53.200;6.530;2023-03-01T16:34:45;17.02;;;11.48;;
76236;SDS011;65038;53.200;6.530;2023-03-01T16:37:14;17.88;;;12.20;;
76236;SDS011;65038;53.200;6.530;2023-03-01T16:39:40;18.92;;;12.30;;
76236;SDS011;65038;53.200;6.530;2023-03-01T16:42:06;18.80;;;12.70;;
76236;SDS011;65038;53.200;6.530;2023-03-01T16:44:32;17.20;;;11.52;;
76236;SDS011;65038;53.200;6.530;2023-03-01T16:46:58;17.15;;;11.27;;
76236;SDS011;65038;53.200;6.530;2023-03-01T16:49:24;16.60;;;10.68;;
76236;SDS011;65038;53.200;6.530;2023-03-01T16:51:52;17.15;;;11.18;;